Time;durP1;ratioP1;P1;durP2;ratioP2;P2;SDS_P1;SDS_P2;PMS_P1;PMS_P2;Temp;Humidity;BMP_temperature;BMP_pressure;BME280_temperature;BME280_humidity;BME280_pressure;Samples;Min_cycle;Max_cycle;Signal;HPM_P1;HPM_P2
2021/01/07 00:00:22;;;;;;;6.93;3.90;;;4.00;99.90;;;;;;5071588;28;20293;-72
2021/01/07 00:02:48;;;;;;;5.35;2.90;;;4.00;99.90;;;;;;5072043;28;20202;-73
2021/01/07 00:05:15;;;;;;;3.33;2.40;;;4.00;99.90;;;;;;5072775;28;20576;-74
2021/01/07 00:07:41;;;;;;;4.32;3.20;;;4.00;99.90;;;;;;5072251;28;20623;-73
2021/01/07 00:10:09;;;;;;;4.88;3.53;;;3.90;99.90;;;;;;5072436;28;20309;-73
2021/01/07 00:12:35;;;;;;;4.35;2.92;;;4.00;99.90;;;;;;5072017;28;20207;-77
2021/01/07 00:15:02;;;;;;;6.05;3.70;;;4.00;99.90;;;;;;5071817;28;20203;-77
2021/01/07 00:17:29;;;;;;;6.20;3.17;;;4.00;99.90;;;;;;5071536;28;20202;-76
2021/01/07 00:19:55;;;;;;;4.50;3.20;;;3.90;99.90;;;;;;5071804;28;20215;-74
2021/01/07 00:22:22;;;;;;;5.35;3.03;;;3.90;99.90;;;;;;5071746;28;20310;-73
2021/01/07 00:24:48;;;;;;;4.75;3.13;;;4.00;99.90;;;;;;5072008;28;20632;-73
2021/01/07 00:27:16;;;;;;;6.13;3.30;;;3.90;99.90;;;;;;5074466;28;20298;-74
2021/01/07 00:29:42;;;;;;;5.90;3.22;;;4.00;99.90;;;;;;5075547;28;20313;-74
2021/01/07 00:32:09;;;;;;;4.45;3.03;;;4.00;99.90;;;;;;5075774;28;20293;-74
2021/01/07 00:34:35;;;;;;;5.18;3.15;;;4.10;99.90;;;;;;5076985;28;20205;-74
2021/01/07 00:37:01;;;;;;;7.25;3.35;;;4.10;99.90;;;;;;5075990;28;20262;-74
2021/01/07 00:39:29;;;;;;;6.05;3.72;;;4.10;99.90;;;;;;5076444;28;20225;-74
2021/01/07 00:41:56;;;;;;;5.55;3.22;;;4.10;99.90;;;;;;5076199;28;20305;-74
2021/01/07 00:44:23;;;;;;;7.93;3.47;;;4.10;99.90;;;;;;5076472;28;20268;-73
2021/01/07 00:46:50;;;;;;;4.15;3.10;;;4.00;99.90;;;;;;5075689;28;20211;-74
2021/01/07 00:49:17;;;;;;;6.00;3.50;;;4.00;99.90;;;;;;5075277;28;20226;-74
2021/01/07 00:51:43;;;;;;;6.80;3.70;;;4.00;99.90;;;;;;5075634;28;20293;-74
2021/01/07 00:54:10;;;;;;;6.03;3.30;;;4.00;99.90;;;;;;5076036;28;20268;-74
2021/01/07 00:56:37;;;;;;;6.20;3.75;;;4.00;99.90;;;;;;5075440;28;20690;-74
2021/01/07 00:59:05;;;;;;;7.10;3.58;;;4.00;99.90;;;;;;5075122;28;20222;-75
2021/01/07 01:01:32;;;;;;;7.15;3.58;;;4.00;99.90;;;;;;5075509;28;20202;-74
2021/01/07 01:03:58;;;;;;;8.82;4.03;;;4.00;99.90;;;;;;5075236;28;20203;-76
2021/01/07 01:06:30;;;;;;;6.47;3.25;;;3.90;99.90;;;;;;5075091;28;20202;-76
2021/01/07 01:08:57;;;;;;;5.30;3.47;;;4.00;99.90;;;;;;5074476;28;20230;-76
2021/01/07 01:11:27;;;;;;;6.97;3.80;;;3.90;99.90;;;;;;5074576;28;20207;-76
2021/01/07 01:13:54;;;;;;;4.30;3.35;;;3.90;99.90;;;;;;5074974;28;20690;-74
2021/01/07 01:16:20;;;;;;;9.68;4.57;;;3.90;99.90;;;;;;5074899;28;20207;-76
2021/01/07 01:18:47;;;;;;;4.13;3.25;;;3.90;99.90;;;;;;5075037;28;20727;-74
2021/01/07 01:21:16;;;;;;;5.88;4.00;;;3.90;99.90;;;;;;5075104;28;20294;-75
2021/01/07 01:23:42;;;;;;;6.30;3.58;;;3.90;99.90;;;;;;5075292;28;20202;-74
2021/01/07 01:26:09;;;;;;;4.80;3.60;;;3.90;99.90;;;;;;5075116;28;20818;-74
2021/01/07 01:28:35;;;;;;;7.60;3.45;;;3.90;99.90;;;;;;5075005;28;20318;-74
2021/01/07 01:31:03;;;;;;;7.50;3.80;;;3.90;99.90;;;;;;5073543;28;20203;-75
2021/01/07 01:33:29;;;;;;;6.93;3.85;;;4.00;99.90;;;;;;5074938;28;20683;-73
2021/01/07 01:35:56;;;;;;;6.65;3.95;;;4.00;99.90;;;;;;5074988;28;20290;-73
2021/01/07 01:38:23;;;;;;;5.93;3.30;;;4.10;99.90;;;;;;5074434;28;20355;-72
2021/01/07 01:40:49;;;;;;;4.70;3.10;;;4.10;99.90;;;;;;5075558;28;20218;-74
2021/01/07 01:43:16;;;;;;;6.00;3.65;;;4.10;99.90;;;;;;5074109;28;20316;-75
2021/01/07 01:45:42;;;;;;;4.00;3.33;;;4.10;99.90;;;;;;5073597;28;20206;-75
2021/01/07 01:48:11;;;;;;;5.78;3.00;;;4.10;99.90;;;;;;5073385;28;20773;-75
2021/01/07 01:50:38;;;;;;;5.28;3.10;;;4.10;99.90;;;;;;5074126;28;20217;-75
2021/01/07 01:53:04;;;;;;;5.38;3.63;;;4.00;99.90;;;;;;5073708;28;20668;-75
2021/01/07 01:55:31;;;;;;;8.70;3.85;;;4.00;99.90;;;;;;5073763;28;20209;-70
2021/01/07 01:57:59;;;;;;;6.32;3.38;;;4.00;99.90;;;;;;5073488;28;20317;-71
2021/01/07 02:00:25;;;;;;;5.68;3.40;;;4.00;99.90;;;;;;5073690;28;20214;-70
2021/01/07 02:02:51;;;;;;;7.47;3.72;;;4.00;99.90;;;;;;5073736;28;20668;-70
2021/01/07 02:05:19;;;;;;;6.57;3.80;;;3.90;99.90;;;;;;5073927;28;20294;-70
2021/01/07 02:07:46;;;;;;;4.70;2.90;;;4.00;99.90;;;;;;5073149;28;20207;-70
2021/01/07 02:10:14;;;;;;;5.50;3.22;;;4.00;99.90;;;;;;5073127;28;20219;-71
2021/01/07 02:12:45;;;;;;;4.95;3.17;;;4.00;99.90;;;;;;5073518;28;20256;-70
2021/01/07 02:15:13;;;;;;;6.47;3.28;;;4.00;99.90;;;;;;5073897;28;20208;-71
2021/01/07 02:17:39;;;;;;;7.93;3.53;;;4.00;99.90;;;;;;5073219;28;20303;-71
2021/01/07 02:20:08;;;;;;;6.57;3.15;;;3.90;99.90;;;;;;5073745;28;20207;-71
2021/01/07 02:22:34;;;;;;;6.45;3.15;;;4.00;99.90;;;;;;5074094;28;20202;-75
2021/01/07 02:25:01;;;;;;;3.65;2.58;;;4.00;99.90;;;;;;5074376;28;20290;-74
2021/01/07 02:27:27;;;;;;;4.63;2.88;;;4.00;99.90;;;;;;5073859;28;20207;-73
2021/01/07 02:29:54;;;;;;;6.47;3.58;;;4.00;99.90;;;;;;5073873;28;20231;-73
2021/01/07 02:32:20;;;;;;;4.70;2.78;;;4.10;99.90;;;;;;5072621;28;20763;-76
2021/01/07 02:34:46;;;;;;;4.20;3.05;;;4.10;99.90;;;;;;5073028;28;20305;-76
2021/01/07 02:37:14;;;;;;;6.25;3.40;;;4.10;99.90;;;;;;5073856;28;20213;-76
2021/01/07 02:39:40;;;;;;;5.90;3.38;;;4.10;99.90;;;;;;5073815;28;20634;-75
2021/01/07 02:42:06;;;;;;;4.80;3.25;;;4.10;99.90;;;;;;5074043;28;20252;-75
2021/01/07 02:44:33;;;;;;;6.32;3.75;;;4.10;99.90;;;;;;5074030;28;20293;-76
2021/01/07 02:46:59;;;;;;;4.80;3.30;;;4.10;99.90;;;;;;5073937;28;20294;-76
2021/01/07 02:49:25;;;;;;;5.47;3.45;;;4.20;99.90;;;;;;5073543;28;20258;-76
2021/01/07 02:51:51;;;;;;;4.82;3.38;;;4.10;99.90;;;;;;5073957;28;20255;-76
2021/01/07 02:54:19;;;;;;;5.45;3.30;;;4.10;99.90;;;;;;5073890;28;20652;-76
2021/01/07 02:56:45;;;;;;;6.65;3.70;;;4.10;99.90;;;;;;5073783;28;20292;-76
2021/01/07 02:59:11;;;;;;;5.18;2.90;;;4.10;99.90;;;;;;5073590;28;20767;-72
2021/01/07 03:01:38;;;;;;;7.00;3.85;;;4.10;99.90;;;;;;5074023;28;20209;-77
2021/01/07 03:04:04;;;;;;;6.65;3.75;;;4.10;99.90;;;;;;5074306;28;20256;-74
2021/01/07 03:06:30;;;;;;;4.35;3.40;;;4.10;99.90;;;;;;5073649;28;20232;-74
2021/01/07 03:08:57;;;;;;;5.18;3.58;;;4.10;99.90;;;;;;5073710;28;20364;-74
2021/01/07 03:11:24;;;;;;;4.55;3.20;;;4.10;99.90;;;;;;5074141;28;20290;-74
2021/01/07 03:13:50;;;;;;;5.28;2.80;;;4.10;99.90;;;;;;5073916;28;20549;-74
2021/01/07 03:16:17;;;;;;;5.03;3.13;;;4.10;99.90;;;;;;5073560;28;20822;-73
2021/01/07 03:18:43;;;;;;;5.40;3.13;;;4.10;99.90;;;;;;5073421;28;20267;-73
2021/01/07 03:21:09;;;;;;;3.78;2.75;;;4.10;99.90;;;;;;5073794;28;20300;-74
2021/01/07 03:23:35;;;;;;;7.38;3.20;;;4.10;99.90;;;;;;5073559;28;20225;-73
2021/01/07 03:26:02;;;;;;;4.43;3.13;;;4.10;99.90;;;;;;5073424;28;20205;-74
2021/01/07 03:28:29;;;;;;;3.58;2.85;;;4.00;99.90;;;;;;5073140;28;20233;-74
2021/01/07 03:30:55;;;;;;;6.43;3.08;;;4.10;99.90;;;;;;5073392;28;20298;-74
2021/01/07 03:33:22;;;;;;;3.63;2.92;;;4.10;99.90;;;;;;5073598;28;20293;-74
2021/01/07 03:35:48;;;;;;;5.35;3.25;;;4.10;99.90;;;;;;5073596;28;20203;-74
2021/01/07 03:38:14;;;;;;;4.57;3.00;;;4.10;99.90;;;;;;5073592;28;20310;-74
2021/01/07 03:40:41;;;;;;;3.72;2.60;;;4.20;99.90;;;;;;5073718;28;20214;-73
2021/01/07 03:43:07;;;;;;;5.50;2.92;;;4.20;99.90;;;;;;5074094;28;20629;-74
2021/01/07 03:45:34;;;;;;;3.70;2.28;;;4.20;99.90;;;;;;5073420;28;20297;-73
2021/01/07 03:48:01;;;;;;;8.15;3.20;;;4.00;99.90;;;;;;5073275;28;20313;-73
2021/01/07 03:50:27;;;;;;;6.15;2.70;;;3.90;99.90;;;;;;5073300;28;20230;-73
2021/01/07 03:52:53;;;;;;;4.45;2.85;;;3.80;99.90;;;;;;5073134;28;20206;-74
2021/01/07 03:55:19;;;;;;;4.30;2.45;;;3.70;99.90;;;;;;5073310;28;20293;-74
2021/01/07 03:57:46;;;;;;;7.35;3.10;;;3.60;99.90;;;;;;5073015;28;20203;-73
2021/01/07 04:00:13;;;;;;;2.40;2.10;;;3.50;99.90;;;;;;5073318;28;20619;-73
2021/01/07 04:02:40;;;;;;;2.67;2.42;;;3.60;99.90;;;;;;5076676;28;20228;-73
2021/01/07 04:05:07;;;;;;;3.13;2.00;;;3.60;99.90;;;;;;5077054;28;20351;-73
2021/01/07 04:07:34;;;;;;;4.00;2.50;;;3.70;99.90;;;;;;5076611;28;20206;-73
2021/01/07 04:10:00;;;;;;;5.10;2.53;;;3.70;99.90;;;;;;5076870;28;20227;-73
2021/01/07 04:12:26;;;;;;;3.10;1.95;;;3.70;99.90;;;;;;5076950;28;20370;-73
2021/01/07 04:14:52;;;;;;;3.97;2.45;;;3.80;99.90;;;;;;5076880;28;20301;-73
2021/01/07 04:17:19;;;;;;;2.53;2.20;;;3.80;99.90;;;;;;5076565;28;20207;-73
2021/01/07 04:19:46;;;;;;;4.03;2.63;;;3.80;99.90;;;;;;5076652;28;20219;-74
2021/01/07 04:22:12;;;;;;;4.95;2.22;;;3.90;99.90;;;;;;5076798;28;20408;-74
2021/01/07 04:24:38;;;;;;;3.05;2.50;;;3.80;99.90;;;;;;5076473;28;20289;-73
2021/01/07 04:27:05;;;;;;;3.88;2.63;;;3.80;99.90;;;;;;5076300;28;20238;-74
2021/01/07 04:29:32;;;;;;;3.92;2.53;;;3.80;99.90;;;;;;5076486;28;20234;-73
2021/01/07 04:31:58;;;;;;;3.15;2.55;;;3.80;99.90;;;;;;5076613;28;20293;-73
2021/01/07 04:34:24;;;;;;;5.95;3.03;;;3.80;99.90;;;;;;5076482;28;20385;-74
2021/01/07 04:36:51;;;;;;;3.80;2.22;;;3.80;99.90;;;;;;5076381;28;20297;-74
2021/01/07 04:39:18;;;;;;;2.53;2.28;;;3.70;99.90;;;;;;5076508;28;20226;-74
2021/01/07 04:41:44;;;;;;;4.38;2.15;;;3.70;99.90;;;;;;5076456;28;20341;-74
2021/01/07 04:44:11;;;;;;;4.20;2.80;;;3.60;99.90;;;;;;5076422;28;20319;-73
2021/01/07 04:46:38;;;;;;;4.57;2.35;;;3.70;99.90;;;;;;5075996;28;20203;-74
2021/01/07 04:49:04;;;;;;;3.13;2.60;;;3.70;99.90;;;;;;5075993;28;20227;-73
2021/01/07 04:51:31;;;;;;;3.83;2.92;;;3.80;99.90;;;;;;5076294;28;20293;-73
2021/01/07 04:53:58;;;;;;;3.33;2.40;;;3.80;99.90;;;;;;5076202;28;20232;-73
2021/01/07 04:56:24;;;;;;;5.78;3.15;;;3.90;99.90;;;;;;5075888;28;20697;-73
2021/01/07 04:58:50;;;;;;;7.85;2.72;;;3.90;99.90;;;;;;5076271;28;20218;-74
2021/01/07 05:01:17;;;;;;;6.28;3.40;;;3.90;99.90;;;;;;5076334;28;20294;-73
2021/01/07 05:03:46;;;;;;;9.65;3.35;;;3.90;99.90;;;;;;5075884;28;20684;-74
2021/01/07 05:06:12;;;;;;;3.13;2.78;;;3.90;99.90;;;;;;5076132;28;20199;-73
2021/01/07 05:08:39;;;;;;;3.83;2.60;;;3.90;99.90;;;;;;5076253;28;20324;-73
2021/01/07 05:11:06;;;;;;;5.30;3.20;;;4.00;99.90;;;;;;5076000;28;20286;-73
2021/01/07 05:13:33;;;;;;;4.38;2.78;;;4.00;99.90;;;;;;5074824;28;20209;-73
2021/01/07 05:15:59;;;;;;;3.53;2.63;;;4.00;99.90;;;;;;5075737;28;20205;-74
2021/01/07 05:18:26;;;;;;;6.78;3.58;;;4.10;99.90;;;;;;5076224;28;20229;-74
2021/01/07 05:20:52;;;;;;;4.55;3.00;;;4.10;99.90;;;;;;5075912;28;20207;-73
2021/01/07 05:23:21;;;;;;;6.35;3.65;;;4.00;99.90;;;;;;5075750;28;20294;-73
2021/01/07 05:25:55;;;;;;;4.82;2.92;;;4.00;99.90;;;;;;5075606;28;20336;-73
2021/01/07 05:28:22;;;;;;;4.35;2.75;;;4.00;99.90;;;;;;5075467;28;20232;-73
2021/01/07 05:30:49;;;;;;;8.77;4.07;;;3.90;99.90;;;;;;5075671;28;20348;-74
2021/01/07 05:33:18;;;;;;;4.40;2.85;;;3.90;99.90;;;;;;5075476;28;20202;-73
2021/01/07 05:35:44;;;;;;;7.13;3.40;;;4.00;99.90;;;;;;5075548;28;20199;-74
2021/01/07 05:38:10;;;;;;;5.45;3.42;;;4.00;99.90;;;;;;5075474;28;20226;-74
2021/01/07 05:40:37;;;;;;;5.88;3.50;;;4.00;99.90;;;;;;5075339;28;20299;-74
2021/01/07 05:43:12;;;;;;;4.95;3.40;;;4.00;99.90;;;;;;5075597;28;20248;-74
2021/01/07 05:45:42;;;;;;;7.47;3.40;;;3.90;99.90;;;;;;5075200;28;20202;-74
2021/01/07 05:48:10;;;;;;;5.78;3.63;;;3.90;99.90;;;;;;5075398;28;20223;-74
2021/01/07 05:50:38;;;;;;;5.85;4.00;;;4.00;99.90;;;;;;5075206;28;20761;-73
2021/01/07 05:53:05;;;;;;;3.53;2.90;;;3.80;99.90;;;;;;5075347;28;20279;-74
2021/01/07 05:55:33;;;;;;;6.38;3.10;;;3.90;99.90;;;;;;5075036;28;20203;-75
2021/01/07 05:58:00;;;;;;;5.15;3.17;;;3.80;99.90;;;;;;5074813;28;20225;-74
2021/01/07 06:00:31;;;;;;;8.93;4.10;;;3.90;99.90;;;;;;5074964;28;20199;-74
2021/01/07 06:02:59;;;;;;;7.30;4.10;;;4.00;99.90;;;;;;5074880;28;20661;-74
2021/01/07 06:05:26;;;;;;;6.03;3.25;;;4.00;99.90;;;;;;5075207;28;20547;-73
2021/01/07 06:07:55;;;;;;;7.35;3.78;;;4.00;99.90;;;;;;5074443;28;20707;-74
2021/01/07 06:10:22;;;;;;;7.95;4.60;;;3.90;99.90;;;;;;5074600;28;20218;-74
2021/01/07 06:12:49;;;;;;;7.95;3.70;;;4.00;99.90;;;;;;5074706;28;20206;-73
2021/01/07 06:15:18;;;;;;;7.60;4.43;;;4.00;99.90;;;;;;5074610;28;20203;-74
2021/01/07 06:17:45;;;;;;;4.60;3.33;;;3.90;99.90;;;;;;5074147;28;20199;-74
2021/01/07 06:20:14;;;;;;;5.10;3.65;;;3.90;99.90;;;;;;5074285;28;20289;-74
2021/01/07 06:22:43;;;;;;;4.80;3.70;;;4.00;99.90;;;;;;5074387;28;20210;-74
2021/01/07 06:25:11;;;;;;;6.10;3.80;;;4.00;99.90;;;;;;5073857;28;20209;-74
2021/01/07 06:27:40;;;;;;;9.60;3.72;;;4.00;99.90;;;;;;5074060;28;20580;-74
2021/01/07 06:30:32;;;;;;;7.78;4.07;;;4.00;99.90;;;;;;5074381;28;20230;-74
2021/01/07 06:33:05;;;;;;;7.88;3.92;;;4.00;99.90;;;;;;5074610;28;20195;-74
2021/01/07 06:35:39;;;;;;;6.28;3.20;;;3.90;99.90;;;;;;5074082;28;20263;-74
2021/01/07 06:38:06;;;;;;;5.95;3.40;;;3.90;99.90;;;;;;5074217;28;20230;-74
2021/01/07 06:40:42;;;;;;;7.82;4.40;;;3.80;99.90;;;;;;5074291;28;20203;-74
2021/01/07 06:43:19;;;;;;;7.32;4.32;;;3.80;99.90;;;;;;5074213;28;20302;-73
2021/01/07 06:45:53;;;;;;;7.93;3.92;;;3.80;99.90;;;;;;5073885;28;20202;-74
2021/01/07 06:48:33;;;;;;;8.20;3.92;;;3.80;99.90;;;;;;5073645;28;20698;-74
2021/01/07 06:51:02;;;;;;;7.88;3.75;;;3.80;99.90;;;;;;5073963;28;20206;-74
2021/01/07 06:53:29;;;;;;;7.40;4.05;;;3.90;99.90;;;;;;5074182;28;20293;-74
2021/01/07 06:56:18;;;;;;;7.10;3.80;;;3.90;99.90;;;;;;5073823;28;20199;-74
2021/01/07 06:58:46;;;;;;;10.05;4.53;;;3.90;99.90;;;;;;5073730;28;20760;-74
2021/01/07 07:01:15;;;;;;;6.47;3.63;;;3.90;99.90;;;;;;5074438;28;20233;-74
2021/01/07 07:03:49;;;;;;;6.60;3.95;;;3.90;99.90;;;;;;5074381;28;20598;-74
2021/01/07 07:06:25;;;;;;;9.25;3.75;;;3.90;99.90;;;;;;5074350;28;20294;-74
2021/01/07 07:08:51;;;;;;;6.75;4.10;;;3.90;99.90;;;;;;5073886;28;20286;-74
2021/01/07 07:11:33;;;;;;;10.00;4.40;;;3.70;99.90;;;;;;5074855;28;20209;-74
2021/01/07 07:14:02;;;;;;;9.85;4.85;;;3.70;99.90;;;;;;5074975;28;20289;-74
2021/01/07 07:16:33;;;;;;;8.95;4.20;;;3.70;99.90;;;;;;5074122;28;20209;-74
2021/01/07 07:18:59;;;;;;;9.05;3.80;;;3.80;99.90;;;;;;5074043;28;20569;-73
2021/01/07 07:21:26;;;;;;;6.72;3.67;;;3.70;99.90;;;;;;5074219;28;20294;-74
2021/01/07 07:23:56;;;;;;;6.88;3.65;;;3.80;99.90;;;;;;5074207;28;20206;-73
2021/01/07 07:26:33;;;;;;;7.78;4.00;;;3.80;99.90;;;;;;5073751;28;20665;-75
2021/01/07 07:29:04;;;;;;;6.70;4.20;;;3.80;99.90;;;;;;5073690;28;20240;-74
2021/01/07 07:31:38;;;;;;;8.00;4.22;;;3.70;99.90;;;;;;5074213;28;20191;-74
2021/01/07 07:34:05;;;;;;;6.07;3.80;;;3.90;99.90;;;;;;5073995;28;20206;-74
2021/01/07 07:36:34;;;;;;;7.78;4.28;;;3.90;99.90;;;;;;5075443;28;20206;-74
2021/01/07 07:39:01;;;;;;;8.07;3.85;;;3.90;99.90;;;;;;5077632;28;20214;-74
2021/01/07 07:41:28;;;;;;;9.95;4.80;;;3.90;99.90;;;;;;5077691;28;20206;-74
2021/01/07 07:43:56;;;;;;;7.40;3.83;;;4.10;99.90;;;;;;5077933;28;20232;-74
2021/01/07 07:46:25;;;;;;;8.73;5.20;;;4.10;99.90;;;;;;5078215;28;20672;-73
2021/01/07 07:48:58;;;;;;;6.30;4.10;;;4.10;99.90;;;;;;5077634;28;20225;-73
2021/01/07 07:51:24;;;;;;;8.00;4.72;;;4.20;99.90;;;;;;5077455;28;20207;-74
2021/01/07 07:54:02;;;;;;;7.38;4.20;;;4.10;99.90;;;;;;5077369;28;20228;-73
2021/01/07 07:56:29;;;;;;;5.50;3.50;;;4.20;99.90;;;;;;5076964;28;20203;-74
2021/01/07 07:58:59;;;;;;;8.00;3.85;;;4.10;99.90;;;;;;5077313;28;20219;-73
2021/01/07 08:01:36;;;;;;;11.40;4.60;;;4.10;99.90;;;;;;5077236;28;20542;-73
2021/01/07 08:04:02;;;;;;;9.75;4.55;;;4.10;99.90;;;;;;5077636;28;20211;-73
2021/01/07 08:06:29;;;;;;;8.10;4.13;;;4.20;99.90;;;;;;5076827;28;20564;-74
2021/01/07 08:09:03;;;;;;;9.75;4.43;;;4.20;99.90;;;;;;5076801;28;20317;-74
2021/01/07 08:11:30;;;;;;;8.07;3.95;;;4.20;99.90;;;;;;5077041;28;20301;-73
2021/01/07 08:13:57;;;;;;;9.48;4.97;;;4.20;99.90;;;;;;5077028;28;20202;-74
2021/01/07 08:16:25;;;;;;;7.85;4.22;;;4.20;99.90;;;;;;5076616;28;20207;-74
2021/01/07 08:18:52;;;;;;;10.65;4.82;;;4.30;99.90;;;;;;5076856;28;20218;-74
2021/01/07 08:21:18;;;;;;;9.95;4.57;;;4.30;99.90;;;;;;5077084;28;20299;-74
2021/01/07 08:23:44;;;;;;;11.13;5.10;;;4.30;99.90;;;;;;5077065;28;20209;-73
2021/01/07 08:26:25;;;;;;;8.50;4.47;;;4.30;99.90;;;;;;5076785;28;20570;-73
2021/01/07 08:28:52;;;;;;;5.65;4.63;;;4.30;99.90;;;;;;5076878;28;20218;-73
2021/01/07 08:31:20;;;;;;;8.05;4.10;;;4.20;99.90;;;;;;5076951;28;20252;-73
2021/01/07 08:33:48;;;;;;;8.00;4.75;;;4.20;99.90;;;;;;5076983;28;20571;-73
2021/01/07 08:36:19;;;;;;;8.10;5.10;;;4.20;99.90;;;;;;5076742;28;20210;-74
2021/01/07 08:38:49;;;;;;;7.35;3.97;;;4.20;99.90;;;;;;5076786;28;20313;-73
2021/01/07 08:41:18;;;;;;;8.45;4.70;;;4.20;99.90;;;;;;5077252;28;20569;-73
2021/01/07 08:43:47;;;;;;;8.25;4.30;;;4.20;99.90;;;;;;5076471;28;20217;-73
2021/01/07 08:46:14;;;;;;;7.45;4.65;;;4.20;99.90;;;;;;5076213;28;20203;-74
2021/01/07 08:48:41;;;;;;;7.43;3.60;;;4.20;99.90;;;;;;5075873;28;20726;-74
2021/01/07 08:51:18;;;;;;;6.80;4.35;;;4.30;99.90;;;;;;5076681;28;20557;-74
2021/01/07 08:53:52;;;;;;;7.78;4.80;;;4.30;99.90;;;;;;5076954;28;20198;-74
2021/01/07 08:56:32;;;;;;;7.60;4.28;;;4.40;99.90;;;;;;5076660;28;20203;-74
2021/01/07 08:59:21;;;;;;;9.20;4.45;;;4.40;99.90;;;;;;5076235;28;20219;-73
2021/01/07 09:01:49;;;;;;;7.78;3.92;;;4.40;99.90;;;;;;5076439;28;20665;-73
2021/01/07 09:04:30;;;;;;;10.00;4.32;;;4.50;99.90;;;;;;5076350;28;20255;-73
2021/01/07 09:06:58;;;;;;;6.43;3.80;;;4.50;99.90;;;;;;5075878;28;20261;-73
2021/01/07 09:09:25;;;;;;;5.10;3.20;;;4.50;99.90;;;;;;5076169;28;20313;-73
2021/01/07 09:12:08;;;;;;;7.07;3.55;;;4.50;99.90;;;;;;5076186;28;20202;-73
2021/01/07 09:14:54;;;;;;;6.50;4.15;;;4.50;99.90;;;;;;5076491;28;20206;-73
2021/01/07 09:17:22;;;;;;;8.05;4.38;;;4.50;99.90;;;;;;5075714;28;20202;-73
2021/01/07 09:19:49;;;;;;;7.22;3.10;;;4.50;99.90;;;;;;5075431;28;20249;-73
2021/01/07 09:22:17;;;;;;;5.57;3.30;;;4.60;99.90;;;;;;5075555;28;20209;-73
2021/01/07 09:24:43;;;;;;;7.93;4.47;;;4.60;99.90;;;;;;5075856;28;20199;-73
2021/01/07 09:27:12;;;;;;;9.10;3.92;;;4.70;99.90;;;;;;5075502;28;20210;-74
2021/01/07 09:29:40;;;;;;;8.57;3.75;;;4.70;99.90;;;;;;5075656;28;20587;-73
2021/01/07 09:32:07;;;;;;;6.68;4.07;;;4.70;99.90;;;;;;5075642;28;20206;-73
2021/01/07 09:34:34;;;;;;;7.43;4.93;;;4.80;99.90;;;;;;5075577;28;20292;-74
2021/01/07 09:37:05;;;;;;;11.88;5.78;;;4.80;99.90;;;;;;5075425;28;20294;-74
2021/01/07 09:39:32;;;;;;;6.55;4.28;;;4.80;99.90;;;;;;5075536;28;20218;-73
2021/01/07 09:41:58;;;;;;;8.05;4.07;;;4.70;99.90;;;;;;5075510;28;20297;-73
2021/01/07 09:44:25;;;;;;;10.40;4.20;;;4.70;99.90;;;;;;5075512;28;20213;-73
2021/01/07 09:46:53;;;;;;;7.63;4.10;;;4.80;99.90;;;;;;5075042;28;20679;-73
2021/01/07 09:49:20;;;;;;;6.22;3.88;;;4.80;99.90;;;;;;5074907;28;20313;-73
2021/01/07 09:51:47;;;;;;;9.75;3.85;;;4.80;99.90;;;;;;5075156;28;20668;-73
2021/01/07 09:54:13;;;;;;;8.40;4.00;;;4.90;99.90;;;;;;5075434;28;20585;-74
2021/01/07 09:56:40;;;;;;;11.00;4.55;;;5.00;99.90;;;;;;5075058;28;20207;-74
2021/01/07 09:59:06;;;;;;;7.80;4.68;;;5.10;99.90;;;;;;5075132;28;20226;-74
2021/01/07 10:01:33;;;;;;;7.60;4.55;;;5.10;99.90;;;;;;5075358;28;20293;-74
2021/01/07 10:04:00;;;;;;;9.85;4.28;;;5.20;99.90;;;;;;5075487;28;20249;-74
2021/01/07 10:06:26;;;;;;;5.32;3.63;;;5.20;99.90;;;;;;5075211;28;20349;-74
2021/01/07 10:08:52;;;;;;;5.30;3.35;;;5.20;99.90;;;;;;5074915;28;20223;-73
2021/01/07 10:11:19;;;;;;;6.88;4.28;;;5.30;99.90;;;;;;5075034;28;20203;-73
2021/01/07 10:13:45;;;;;;;7.90;4.28;;;5.20;99.90;;;;;;5074757;28;20634;-74
2021/01/07 10:16:12;;;;;;;7.55;4.15;;;5.30;99.90;;;;;;5074866;28;20209;-74
2021/01/07 10:18:40;;;;;;;8.73;4.38;;;5.20;99.90;;;;;;5075220;28;20227;-74
2021/01/07 10:21:08;;;;;;;9.50;5.32;;;5.20;99.90;;;;;;5075099;28;20203;-74
2021/01/07 10:23:35;;;;;;;7.68;3.45;;;5.20;99.90;;;;;;5074850;28;20202;-74
2021/01/07 10:26:03;;;;;;;9.20;5.10;;;5.20;99.90;;;;;;5074851;28;20205;-74
2021/01/07 10:28:29;;;;;;;8.93;4.82;;;5.30;99.90;;;;;;5074812;28;20231;-73
2021/01/07 10:30:56;;;;;;;9.82;5.22;;;5.40;99.90;;;;;;5074673;28;20223;-74
2021/01/07 10:33:23;;;;;;;8.85;4.32;;;5.30;99.90;;;;;;5074831;28;20301;-73
2021/01/07 10:35:50;;;;;;;6.82;3.85;;;5.40;99.90;;;;;;5074391;28;20298;-74
2021/01/07 10:38:22;;;;;;;6.18;4.45;;;5.30;99.90;;;;;;5074130;28;20232;-73
2021/01/07 10:40:49;;;;;;;7.43;4.55;;;5.20;99.90;;;;;;5074533;28;20187;-74
2021/01/07 10:43:19;;;;;;;7.43;4.30;;;5.20;99.90;;;;;;5074319;28;20202;-74
2021/01/07 10:45:46;;;;;;;3.65;3.05;;;5.30;99.90;;;;;;5073885;28;20256;-74
2021/01/07 10:48:14;;;;;;;5.63;3.58;;;5.10;99.90;;;;;;5074212;28;20219;-74
2021/01/07 10:50:41;;;;;;;6.38;3.53;;;5.10;99.90;;;;;;5073941;28;20229;-73
2021/01/07 10:53:49;;;;;;;7.35;3.55;;;5.20;99.90;;;;;;5073864;28;20203;-74
2021/01/07 10:56:24;;;;;;;7.43;3.40;;;5.10;99.90;;;;;;5073903;28;20209;-74
2021/01/07 10:59:07;;;;;;;5.72;3.30;;;5.20;99.90;;;;;;5073866;28;20218;-74
2021/01/07 11:01:47;;;;;;;8.38;4.70;;;5.20;99.90;;;;;;5074020;28;20198;-73
2021/01/07 11:04:30;;;;;;;6.88;3.90;;;5.20;99.90;;;;;;5073670;28;20660;-73
2021/01/07 11:07:05;;;;;;;5.78;4.00;;;5.10;99.90;;;;;;5073759;28;20213;-73
2021/01/07 11:09:38;;;;;;;4.47;3.15;;;5.20;99.90;;;;;;5073588;28;20223;-74
2021/01/07 11:12:13;;;;;;;6.20;3.60;;;5.30;99.90;;;;;;5073787;28;20301;-74
2021/01/07 11:14:46;;;;;;;9.25;4.50;;;5.40;99.90;;;;;;5074134;28;20201;-74
2021/01/07 11:17:17;;;;;;;7.10;3.60;;;5.50;99.90;;;;;;5073807;28;20656;-74
2021/01/07 11:19:49;;;;;;;6.40;3.72;;;5.60;99.90;;;;;;5073857;28;20218;-73
2021/01/07 11:22:20;;;;;;;5.78;3.92;;;5.70;99.90;;;;;;5073740;28;20703;-74
2021/01/07 11:24:49;;;;;;;4.88;2.97;;;5.70;99.90;;;;;;5074073;28;20297;-75
2021/01/07 11:27:15;;;;;;;6.20;3.60;;;5.80;99.90;;;;;;5073390;28;20217;-74
2021/01/07 11:29:43;;;;;;;7.13;3.85;;;5.80;99.90;;;;;;5073724;28;20235;-74
2021/01/07 11:32:09;;;;;;;5.80;3.25;;;5.90;99.90;;;;;;5073788;28;20307;-74
2021/01/07 11:34:36;;;;;;;9.00;3.15;;;6.00;99.90;;;;;;5074515;28;20297;-73
2021/01/07 11:37:10;;;;;;;3.95;2.78;;;5.90;99.90;;;;;;5074009;28;20329;-73
2021/01/07 11:39:59;;;;;;;6.68;3.70;;;5.50;99.90;;;;;;5074269;28;20225;-73
2021/01/07 11:42:37;;;;;;;7.63;3.20;;;5.40;99.90;;;;;;5074381;28;20202;-72
2021/01/07 11:45:05;;;;;;;5.88;3.20;;;5.30;99.90;;;;;;5076432;28;20347;-75
2021/01/07 11:47:37;;;;;;;4.05;2.88;;;5.40;99.90;;;;;;5075864;28;20568;-75
2021/01/07 11:50:06;;;;;;;5.07;3.13;;;5.50;99.90;;;;;;5074899;28;20229;-75
2021/01/07 11:52:37;;;;;;;4.97;3.60;;;5.50;99.90;;;;;;5075012;28;20205;-76
2021/01/07 11:55:06;;;;;;;5.78;3.40;;;5.60;99.90;;;;;;5074687;28;20277;-76
2021/01/07 11:57:35;;;;;;;4.63;3.00;;;5.70;99.90;;;;;;5074177;28;20612;-79
2021/01/07 12:00:05;;;;;;;7.93;3.10;;;5.80;99.90;;;;;;5069921;28;20596;-82
2021/01/07 12:02:33;;;;;;;5.88;3.08;;;5.80;99.90;;;;;;5072040;28;20211;-78
2021/01/07 12:05:00;;;;;;;5.13;3.05;;;5.90;99.90;;;;;;5074875;28;20289;-77
2021/01/07 12:07:46;;;;;;;6.40;3.80;;;5.80;99.90;;;;;;5075022;28;20213;-78
2021/01/07 12:10:17;;;;;;;3.05;2.70;;;5.90;99.90;;;;;;5073398;28;20218;-78
2021/01/07 12:12:49;;;;;;;5.47;2.58;;;5.90;99.90;;;;;;5074959;28;20208;-78
2021/01/07 12:15:17;;;;;;;6.20;3.70;;;5.90;99.90;;;;;;5074565;28;20203;-78
2021/01/07 12:17:43;;;;;;;8.00;3.83;;;5.80;99.90;;;;;;5074528;28;20210;-77
2021/01/07 12:20:11;;;;;;;3.90;3.10;;;5.80;99.90;;;;;;5075785;28;20214;-77
2021/01/07 12:22:39;;;;;;;4.53;2.90;;;5.80;99.90;;;;;;5077040;28;20206;-78
2021/01/07 12:25:06;;;;;;;3.60;2.63;;;5.80;99.90;;;;;;5078965;28;20209;-77
2021/01/07 12:27:35;;;;;;;5.90;2.67;;;5.80;99.90;;;;;;5076109;28;20615;-77
2021/01/07 12:30:04;;;;;;;7.07;3.75;;;5.80;99.90;;;;;;5076223;28;20458;-77
2021/01/07 12:32:32;;;;;;;6.50;3.38;;;5.80;99.90;;;;;;5076128;28;20213;-77
2021/01/07 12:35:06;;;;;;;8.18;3.58;;;5.80;99.90;;;;;;5075934;28;20260;-77
2021/01/07 12:37:43;;;;;;;5.13;3.10;;;5.90;99.90;;;;;;5075131;28;20213;-76
2021/01/07 12:40:12;;;;;;;7.38;3.70;;;5.90;99.90;;;;;;5076006;28;20198;-76
2021/01/07 12:42:43;;;;;;;5.72;3.28;;;5.90;99.90;;;;;;5075167;28;20203;-75
2021/01/07 12:45:12;;;;;;;6.47;3.75;;;5.90;99.90;;;;;;5075285;28;20209;-76
2021/01/07 12:47:39;;;;;;;5.85;3.67;;;5.90;99.90;;;;;;5074940;28;20205;-75
2021/01/07 12:50:06;;;;;;;9.27;3.58;;;5.80;99.90;;;;;;5075160;28;20225;-75
2021/01/07 12:52:34;;;;;;;8.77;4.53;;;5.70;99.90;;;;;;5075115;28;20285;-75
2021/01/07 12:55:02;;;;;;;6.78;4.00;;;5.70;99.90;;;;;;5075412;28;20209;-76
2021/01/07 12:57:36;;;;;;;5.95;3.67;;;5.80;99.90;;;;;;5074850;28;20230;-76
2021/01/07 13:00:07;;;;;;;5.90;3.53;;;5.80;99.90;;;;;;5075183;28;20579;-77
2021/01/07 13:02:41;;;;;;;8.25;5.65;;;5.80;99.90;;;;;;5075012;28;20207;-75
2021/01/07 13:05:15;;;;;;;9.70;5.75;;;5.80;99.90;;;;;;5074904;28;20198;-76